createdAt,value
2018-07-08T00:01:32.151Z,2.60
2018-07-08T00:04:00.615Z,2.97
2018-07-08T00:06:28.990Z,3.20
2018-07-08T00:08:57.407Z,3.20
2018-07-08T00:11:25.820Z,2.90
2018-07-08T00:13:54.246Z,2.77
2018-07-08T00:16:22.693Z,2.90
2018-07-08T00:18:51.436Z,3.20
2018-07-08T00:21:19.878Z,2.93
2018-07-08T00:23:48.360Z,3.23
2018-07-08T00:26:16.784Z,3.40
2018-07-08T00:28:45.183Z,3.03
2018-07-08T00:31:13.603Z,2.80
2018-07-08T00:33:42.022Z,2.50
2018-07-08T00:36:10.450Z,2.67
2018-07-08T00:38:38.906Z,2.93
2018-07-08T00:41:07.318Z,2.87
2018-07-08T00:43:35.830Z,2.87
2018-07-08T00:46:04.208Z,3.10
2018-07-08T00:48:32.655Z,2.70
2018-07-08T00:51:01.058Z,2.90
2018-07-08T00:53:29.482Z,3.03
2018-07-08T00:55:57.887Z,2.77
2018-07-08T00:58:26.275Z,2.90
2018-07-08T01:00:54.689Z,3.03
2018-07-08T01:03:23.102Z,3.33
2018-07-08T01:05:51.493Z,2.80
2018-07-08T01:08:19.861Z,2.57
2018-07-08T01:10:48.289Z,3.07
2018-07-08T01:13:16.669Z,2.73
2018-07-08T01:15:44.797Z,3.13
2018-07-08T01:18:13.206Z,3.20
2018-07-08T01:20:41.658Z,2.93
2018-07-08T01:23:10.338Z,3.07
2018-07-08T01:25:50.248Z,3.53
2018-07-08T01:28:18.942Z,3.07
2018-07-08T01:30:47.473Z,3.20
2018-07-08T01:33:15.884Z,3.00
2018-07-08T01:35:44.288Z,3.43
2018-07-08T01:38:12.638Z,3.20
2018-07-08T01:40:41.053Z,3.50
2018-07-08T01:43:09.528Z,3.30
2018-07-08T01:45:38.038Z,3.53
2018-07-08T01:48:06.466Z,3.53
2018-07-08T01:50:34.887Z,3.67
2018-07-08T01:53:03.270Z,3.50
2018-07-08T01:55:31.982Z,3.40
2018-07-08T01:58:00.531Z,2.90
2018-07-08T02:00:28.965Z,3.50
2018-07-08T02:02:57.437Z,3.63
2018-07-08T02:05:25.857Z,3.33
2018-07-08T02:07:54.662Z,3.13
2018-07-08T02:10:23.147Z,4.10
2018-07-08T02:12:51.591Z,3.37
2018-07-08T02:15:20.023Z,3.50
2018-07-08T02:17:48.476Z,3.40
2018-07-08T02:20:16.966Z,3.30
2018-07-08T02:22:45.962Z,3.30
2018-07-08T02:25:14.360Z,3.00
2018-07-08T02:27:42.870Z,3.40
2018-07-08T02:30:11.264Z,3.50
2018-07-08T02:32:39.956Z,3.20
2018-07-08T02:35:08.388Z,3.53
2018-07-08T02:37:36.811Z,3.43
2018-07-08T02:40:05.526Z,2.83
2018-07-08T02:42:33.976Z,3.40
2018-07-08T02:45:02.434Z,3.53
2018-07-08T02:47:30.832Z,3.10
2018-07-08T02:49:59.190Z,3.40
2018-07-08T02:52:27.567Z,3.73
2018-07-08T02:54:55.955Z,3.63
2018-07-08T02:57:24.365Z,3.23
2018-07-08T02:59:52.806Z,3.60
2018-07-08T03:02:21.311Z,3.73
2018-07-08T03:04:49.711Z,3.63
2018-07-08T03:07:18.106Z,3.20
2018-07-08T03:09:46.458Z,3.40
2018-07-08T03:12:14.880Z,3.37
2018-07-08T03:14:43.246Z,3.53
2018-07-08T03:17:11.626Z,3.57
2018-07-08T03:19:40.015Z,3.60
2018-07-08T03:22:08.405Z,3.53
2018-07-08T03:24:36.795Z,3.90
2018-07-08T03:27:05.249Z,3.67
2018-07-08T03:29:33.617Z,3.30
2018-07-08T03:32:02.068Z,3.40
2018-07-08T03:34:30.453Z,3.03
2018-07-08T03:36:58.865Z,3.23
2018-07-08T03:39:27.232Z,3.80
2018-07-08T03:41:55.634Z,3.70
2018-07-08T03:44:23.700Z,3.57
2018-07-08T03:46:52.096Z,3.90
2018-07-08T03:49:20.482Z,3.60
2018-07-08T03:53:18.119Z,3.67
2018-07-08T03:55:46.187Z,3.57
2018-07-08T03:58:14.680Z,3.60
2018-07-08T04:00:43.049Z,3.20
2018-07-08T04:03:11.516Z,3.07
2018-07-08T04:05:39.910Z,3.77
2018-07-08T04:08:08.332Z,3.90
2018-07-08T04:10:36.715Z,3.90
2018-07-08T04:13:05.163Z,3.87
2018-07-08T04:15:33.573Z,4.40
2018-07-08T04:18:09.507Z,4.67
2018-07-08T04:20:39.142Z,4.23
2018-07-08T04:23:07.891Z,3.87
2018-07-08T04:25:36.285Z,3.50
2018-07-08T04:28:05.065Z,3.40
2018-07-08T04:30:33.502Z,3.87
2018-07-08T04:33:02.210Z,3.77
2018-07-08T04:35:30.692Z,4.03
2018-07-08T04:37:59.824Z,4.07
2018-07-08T04:40:28.340Z,4.50
2018-07-08T04:42:56.762Z,3.87
2018-07-08T04:45:25.202Z,3.70
2018-07-08T04:47:53.663Z,3.83
2018-07-08T04:50:22.053Z,3.80
2018-07-08T04:52:50.475Z,4.37
2018-07-08T04:55:18.833Z,3.87
2018-07-08T04:57:47.255Z,4.27
2018-07-08T05:00:15.646Z,3.70
2018-07-08T05:02:44.085Z,3.73
2018-07-08T05:05:12.554Z,3.93
2018-07-08T05:07:40.993Z,4.03
2018-07-08T05:10:09.415Z,3.83
2018-07-08T05:12:37.832Z,3.50
2018-07-08T05:15:06.328Z,3.93
2018-07-08T05:17:34.720Z,3.33
2018-07-08T05:20:03.198Z,3.33
2018-07-08T05:22:31.572Z,3.43
2018-07-08T05:24:59.991Z,3.50
2018-07-08T05:27:28.455Z,4.47
2018-07-08T05:29:56.992Z,3.63
2018-07-08T05:32:25.401Z,4.57
2018-07-08T05:34:53.839Z,3.87
2018-07-08T05:37:22.246Z,3.00
2018-07-08T05:39:57.106Z,2.30
2018-07-08T05:42:25.575Z,2.53
2018-07-08T05:44:54.103Z,2.30
2018-07-08T05:47:22.491Z,3.73
2018-07-08T05:49:50.940Z,3.40
2018-07-08T05:52:19.212Z,3.20
2018-07-08T05:54:47.616Z,3.90
2018-07-08T05:57:16.014Z,3.15
2018-07-08T05:59:44.425Z,2.80
2018-07-08T06:02:13.373Z,2.75
2018-07-08T06:04:41.852Z,2.70
2018-07-08T06:07:10.463Z,3.10
2018-07-08T06:09:38.846Z,2.47
2018-07-08T06:12:07.629Z,2.30
2018-07-08T06:14:36.082Z,2.70
2018-07-08T06:17:04.588Z,2.65
2018-07-08T06:19:32.995Z,2.40
2018-07-08T06:22:01.445Z,2.37
2018-07-08T06:24:29.889Z,2.52
2018-07-08T06:26:58.372Z,3.92
2018-07-08T06:29:26.944Z,3.02
2018-07-08T06:31:55.368Z,2.90
2018-07-08T06:34:23.808Z,2.70
2018-07-08T06:36:52.216Z,2.47
2018-07-08T06:39:20.638Z,2.67
2018-07-08T06:41:49.015Z,3.02
2018-07-08T06:44:17.408Z,2.12
2018-07-08T06:46:45.806Z,2.72
2018-07-08T06:49:14.211Z,2.15
2018-07-08T06:51:42.604Z,2.60
2018-07-08T06:54:11.021Z,3.02
2018-07-08T06:56:39.395Z,3.17
2018-07-08T06:59:07.766Z,2.98
2018-07-08T07:01:36.156Z,2.67
2018-07-08T07:04:04.608Z,2.62
2018-07-08T07:06:33.010Z,4.20
2018-07-08T07:09:01.464Z,2.85
2018-07-08T07:11:29.888Z,2.87
2018-07-08T07:13:58.296Z,2.67
2018-07-08T07:16:26.713Z,2.80
2018-07-08T07:18:55.105Z,2.52
2018-07-08T07:21:23.572Z,3.12
2018-07-08T07:23:51.910Z,2.92
2018-07-08T07:26:20.274Z,3.25
2018-07-08T07:28:48.667Z,3.12
2018-07-08T07:31:17.084Z,3.35
2018-07-08T07:33:45.455Z,3.37
2018-07-08T07:36:13.942Z,2.70
2018-07-08T07:38:42.328Z,2.45
2018-07-08T07:41:10.733Z,2.83
2018-07-08T07:43:39.119Z,3.10
2018-07-08T07:46:07.622Z,2.72
2018-07-08T07:48:36.182Z,2.30
2018-07-08T07:51:04.550Z,2.65
2018-07-08T07:53:32.929Z,2.65
2018-07-08T07:56:01.358Z,2.92
2018-07-08T07:58:29.791Z,2.72
2018-07-08T08:00:58.272Z,2.35
2018-07-08T08:03:26.719Z,4.45
2018-07-08T08:05:55.157Z,2.85
2018-07-08T08:08:23.608Z,2.58
2018-07-08T08:10:51.993Z,2.55
2018-07-08T08:13:20.391Z,2.95
2018-07-08T08:15:48.845Z,2.45
2018-07-08T08:18:17.217Z,2.52
2018-07-08T08:20:45.621Z,2.70
2018-07-08T08:23:14.001Z,2.30
2018-07-08T08:25:42.390Z,2.25
2018-07-08T08:28:10.753Z,2.77
2018-07-08T08:30:39.295Z,2.87
2018-07-08T08:33:07.794Z,2.83
2018-07-08T08:35:36.203Z,2.45
2018-07-08T08:38:04.872Z,2.17
2018-07-08T08:40:33.105Z,1.90
2018-07-08T08:43:01.522Z,2.20
2018-07-08T08:45:30.283Z,2.52
2018-07-08T08:47:58.681Z,2.50
2018-07-08T08:50:27.094Z,2.55
2018-07-08T08:52:55.484Z,2.05
2018-07-08T08:55:23.880Z,2.20
2018-07-08T08:57:52.298Z,2.42
2018-07-08T09:00:21.112Z,2.42
2018-07-08T09:02:49.512Z,2.52
2018-07-08T09:05:17.886Z,2.40
2018-07-08T09:07:46.418Z,2.12
2018-07-08T09:10:14.838Z,2.17
2018-07-08T09:12:43.243Z,2.75
2018-07-08T09:15:11.656Z,2.52
2018-07-08T09:17:40.102Z,2.45
2018-07-08T09:20:08.542Z,2.20
2018-07-08T09:22:36.940Z,2.20
2018-07-08T09:25:05.827Z,2.02
2018-07-08T09:27:34.302Z,2.00
2018-07-08T09:30:02.772Z,1.85
2018-07-08T09:32:31.241Z,1.92
2018-07-08T09:34:59.690Z,2.30
2018-07-08T09:37:28.098Z,2.27
2018-07-08T09:39:56.530Z,2.00
2018-07-08T09:42:25.004Z,2.67
2018-07-08T09:44:53.589Z,2.77
2018-07-08T09:47:22.011Z,3.10
2018-07-08T09:49:50.462Z,2.62
2018-07-08T09:52:18.870Z,2.55
2018-07-08T09:54:47.310Z,2.52
2018-07-08T09:57:15.825Z,2.50
2018-07-08T09:59:44.304Z,2.65
2018-07-08T10:02:12.788Z,2.42
2018-07-08T10:04:41.277Z,2.60
2018-07-08T10:07:09.717Z,2.50
2018-07-08T10:09:38.126Z,2.83
2018-07-08T10:12:06.281Z,2.50
2018-07-08T10:14:34.671Z,3.12
2018-07-08T10:17:03.080Z,2.30
2018-07-08T10:19:31.524Z,3.00
2018-07-08T10:21:59.965Z,2.72
2018-07-08T10:24:28.351Z,2.80
2018-07-08T10:27:22.190Z,2.55
2018-07-08T10:29:50.639Z,4.67
2018-07-08T10:32:19.132Z,3.20
2018-07-08T10:34:47.566Z,2.42
2018-07-08T10:37:16.015Z,3.17
2018-07-08T10:39:44.490Z,2.80
2018-07-08T10:42:12.975Z,3.37
2018-07-08T10:44:41.428Z,2.95
2018-07-08T10:47:09.822Z,3.05
2018-07-08T10:49:38.256Z,3.30
2018-07-08T10:52:06.760Z,3.12
2018-07-08T10:54:35.134Z,3.58
2018-07-08T10:57:03.248Z,3.12
2018-07-08T10:59:32.273Z,3.30
2018-07-08T11:02:00.688Z,2.75
2018-07-08T11:04:29.104Z,2.85
2018-07-08T11:06:57.578Z,3.10
2018-07-08T11:09:26.043Z,2.72
2018-07-08T11:11:54.944Z,3.20
2018-07-08T11:14:23.367Z,3.17
2018-07-08T11:16:51.794Z,3.40
2018-07-08T11:19:20.209Z,2.50
2018-07-08T11:21:48.635Z,2.70
2018-07-08T11:24:17.040Z,3.00
2018-07-08T11:26:45.501Z,2.92
2018-07-08T11:29:13.896Z,3.42
2018-07-08T11:31:42.286Z,3.10
2018-07-08T11:34:10.717Z,3.00
2018-07-08T11:36:39.101Z,2.98
2018-07-08T11:39:07.236Z,2.95
2018-07-08T11:41:35.651Z,2.87
2018-07-08T11:44:04.281Z,3.00
2018-07-08T11:46:32.745Z,3.22
2018-07-08T11:49:01.173Z,2.83
2018-07-08T11:51:30.008Z,2.87
2018-07-08T11:53:58.475Z,3.83
2018-07-08T11:56:26.870Z,3.40
2018-07-08T11:58:55.328Z,3.22
2018-07-08T12:01:23.768Z,3.12
2018-07-08T12:03:52.240Z,3.33
2018-07-08T12:06:20.638Z,3.00
2018-07-08T12:08:49.122Z,3.33
2018-07-08T12:11:17.535Z,3.45
2018-07-08T12:13:46.029Z,3.12
2018-07-08T12:16:14.452Z,2.87
2018-07-08T12:18:42.868Z,3.37
2018-07-08T12:21:11.291Z,3.50
2018-07-08T12:23:40.566Z,3.77
2018-07-08T12:26:09.012Z,3.02
2018-07-08T12:28:37.475Z,3.30
2018-07-08T12:31:05.902Z,3.25
2018-07-08T12:33:34.286Z,3.45
2018-07-08T12:36:02.657Z,3.47
2018-07-08T12:38:31.147Z,3.20
2018-07-08T12:40:59.557Z,3.60
2018-07-08T12:43:28.023Z,3.60
2018-07-08T12:45:56.417Z,3.60
2018-07-08T12:48:24.824Z,3.52
2018-07-08T12:50:53.256Z,3.20
2018-07-08T12:53:21.684Z,3.50
2018-07-08T12:55:50.112Z,3.08
2018-07-08T12:58:18.519Z,4.65
2018-07-08T13:00:46.926Z,3.35
2018-07-08T13:03:15.343Z,5.40
2018-07-08T13:05:43.773Z,3.45
2018-07-08T13:08:12.318Z,3.20
2018-07-08T13:10:40.704Z,3.75
2018-07-08T13:13:09.103Z,3.55
2018-07-08T13:15:37.480Z,3.33
2018-07-08T13:18:05.878Z,3.52
2018-07-08T13:20:34.327Z,3.90
2018-07-08T13:23:02.802Z,8.05
2018-07-08T13:25:31.250Z,3.92
2018-07-08T13:27:59.634Z,3.27
2018-07-08T13:30:28.033Z,3.08
2018-07-08T13:32:56.626Z,4.15
2018-07-08T13:35:25.126Z,3.52
2018-07-08T13:37:53.559Z,4.47
2018-07-08T13:40:22.100Z,3.52
2018-07-08T13:42:50.574Z,4.25
2018-07-08T13:45:19.033Z,3.50
2018-07-08T13:47:47.461Z,3.60
2018-07-08T13:50:15.860Z,3.52
2018-07-08T13:52:44.302Z,4.00
2018-07-08T13:55:12.768Z,3.40
2018-07-08T13:57:41.223Z,4.00
2018-07-08T14:00:09.661Z,3.42
2018-07-08T14:02:38.042Z,5.90
2018-07-08T14:05:06.486Z,3.67
2018-07-08T14:07:34.902Z,4.53
2018-07-08T14:10:03.367Z,3.75
2018-07-08T14:12:31.818Z,3.70
2018-07-08T14:15:00.212Z,3.40
2018-07-08T14:17:28.322Z,3.95
2018-07-08T14:19:56.724Z,3.72
2018-07-08T14:22:25.341Z,3.67
2018-07-08T14:24:53.818Z,3.45
2018-07-08T14:27:22.370Z,3.95
2018-07-08T14:29:50.834Z,4.50
2018-07-08T14:33:22.401Z,3.90
2018-07-08T14:35:50.887Z,4.60
2018-07-08T14:38:19.356Z,4.25
2018-07-08T14:40:47.851Z,4.72
2018-07-08T14:43:16.255Z,4.05
2018-07-08T14:45:44.710Z,4.58
2018-07-08T14:48:13.179Z,4.35
2018-07-08T14:50:41.578Z,4.05
2018-07-08T14:53:10.298Z,4.25
2018-07-08T14:55:38.748Z,4.05
2018-07-08T14:58:07.170Z,4.50
2018-07-08T15:00:35.629Z,4.30
2018-07-08T15:03:04.074Z,4.50
2018-07-08T15:05:32.490Z,4.00
2018-07-08T15:08:00.874Z,4.37
2018-07-08T15:10:29.327Z,3.85
2018-07-08T15:12:57.691Z,4.12
2018-07-08T15:15:26.173Z,3.92
2018-07-08T15:17:54.743Z,3.85
2018-07-08T15:20:23.203Z,4.30
2018-07-08T15:22:51.680Z,4.05
2018-07-08T15:25:20.132Z,4.20
2018-07-08T15:27:48.502Z,3.95
2018-07-08T15:30:16.875Z,3.90
2018-07-08T15:32:45.394Z,3.70
2018-07-08T15:35:13.991Z,4.45
2018-07-08T15:37:42.420Z,3.45
2018-07-08T15:40:10.866Z,4.17
2018-07-08T15:42:39.398Z,3.92
2018-07-08T15:45:07.935Z,4.08
2018-07-08T15:47:36.467Z,4.28
2018-07-08T15:50:05.088Z,3.75
2018-07-08T15:52:33.744Z,4.53
2018-07-08T15:55:02.099Z,3.87
2018-07-08T15:57:30.652Z,4.08
2018-07-08T15:59:59.228Z,4.37
2018-07-08T16:02:27.690Z,4.20
2018-07-08T16:04:56.341Z,4.03
2018-07-08T16:07:24.705Z,3.85
2018-07-08T16:09:53.203Z,3.85
2018-07-08T16:12:21.575Z,4.42
2018-07-08T16:14:49.976Z,3.90
2018-07-08T16:17:18.379Z,4.33
2018-07-08T16:19:46.796Z,3.98
2018-07-08T16:22:15.248Z,4.17
2018-07-08T16:24:43.707Z,3.90
2018-07-08T16:27:12.104Z,4.47
2018-07-08T16:29:40.462Z,4.05
2018-07-08T16:32:08.895Z,4.40
2018-07-08T16:34:37.616Z,4.00
2018-07-08T16:37:06.171Z,4.67
2018-07-08T16:39:34.533Z,4.00
2018-07-08T16:42:02.896Z,5.00
2018-07-08T16:44:31.284Z,4.80
2018-07-08T16:46:59.736Z,4.75
2018-07-08T16:49:28.089Z,5.33
2018-07-08T16:51:56.504Z,4.80
2018-07-08T16:54:24.844Z,4.80
2018-07-08T16:56:53.316Z,4.60
2018-07-08T16:59:27.064Z,4.40
2018-07-08T17:01:55.484Z,5.22
2018-07-08T17:04:23.845Z,4.85
2018-07-08T17:06:52.263Z,4.40
2018-07-08T17:09:20.650Z,4.60
2018-07-08T17:11:49.038Z,4.90
2018-07-08T17:14:17.414Z,4.95
2018-07-08T17:16:45.762Z,4.67
2018-07-08T17:19:14.127Z,4.67
2018-07-08T17:21:42.608Z,4.95
2018-07-08T17:24:10.968Z,4.42
2018-07-08T17:26:39.381Z,4.42
2018-07-08T17:29:07.452Z,4.78
2018-07-08T17:31:35.822Z,4.80
2018-07-08T17:34:04.166Z,4.65
2018-07-08T17:36:32.536Z,4.72
2018-07-08T17:39:00.940Z,4.37
2018-07-08T17:41:32.282Z,4.33
2018-07-08T17:44:00.646Z,4.45
2018-07-08T17:46:29.205Z,5.03
2018-07-08T17:48:57.478Z,4.42
2018-07-08T17:51:26.017Z,4.90
2018-07-08T17:53:54.380Z,5.20
2018-07-08T17:56:23.024Z,5.50
2018-07-08T17:58:51.428Z,4.85
2018-07-08T18:01:19.832Z,5.65
2018-07-08T18:03:48.529Z,5.25
2018-07-08T18:06:16.919Z,6.67
2018-07-08T18:08:45.301Z,6.30
2018-07-08T18:11:13.705Z,5.95
2018-07-08T18:13:42.116Z,5.25
2018-07-08T18:16:10.619Z,5.47
2018-07-08T18:18:39.039Z,5.22
2018-07-08T18:21:07.468Z,4.80
2018-07-08T18:23:35.892Z,5.47
2018-07-08T18:26:04.397Z,5.53
2018-07-08T18:28:32.873Z,5.10
2018-07-08T18:31:01.239Z,5.65
2018-07-08T18:33:29.705Z,5.20
2018-07-08T18:35:58.043Z,5.45
2018-07-08T18:38:26.502Z,5.50
2018-07-08T18:40:54.876Z,5.50
2018-07-08T18:43:23.860Z,6.45
2018-07-08T18:45:52.499Z,5.28
2018-07-08T18:48:21.154Z,5.33
2018-07-08T18:50:49.504Z,5.35
2018-07-08T18:53:17.910Z,8.95
2018-07-08T18:55:46.589Z,5.08
2018-07-08T18:58:15.013Z,6.10
2018-07-08T19:00:43.402Z,4.58
2018-07-08T19:03:11.858Z,5.17
2018-07-08T19:05:41.147Z,5.27
2018-07-08T19:08:09.506Z,5.47
2018-07-08T19:10:38.053Z,5.90
2018-07-08T19:13:06.627Z,5.97
2018-07-08T19:15:35.034Z,8.73
2018-07-08T19:18:03.137Z,6.87
2018-07-08T19:20:31.483Z,6.00
2018-07-08T19:22:59.882Z,5.75
2018-07-08T19:25:28.464Z,5.87
2018-07-08T19:27:57.201Z,5.97
2018-07-08T19:30:25.674Z,5.83
2018-07-08T19:32:54.139Z,5.70
2018-07-08T19:35:22.569Z,6.30
2018-07-08T19:37:50.923Z,5.77
2018-07-08T19:40:19.349Z,6.03
2018-07-08T19:42:47.776Z,6.70
2018-07-08T19:45:16.159Z,5.80
2018-07-08T19:47:44.680Z,5.90
2018-07-08T19:50:13.061Z,6.20
2018-07-08T19:52:41.487Z,6.07
2018-07-08T19:55:09.905Z,6.37
2018-07-08T19:57:38.350Z,6.23
2018-07-08T20:00:07.312Z,5.63
2018-07-08T20:02:35.694Z,5.63
2018-07-08T20:05:04.142Z,6.47
2018-07-08T20:07:32.621Z,6.17
2018-07-08T20:10:01.086Z,6.00
2018-07-08T20:12:29.459Z,6.07
2018-07-08T20:14:57.870Z,5.80
2018-07-08T20:17:26.267Z,6.10
2018-07-08T20:19:54.703Z,6.83
2018-07-08T20:22:23.479Z,6.10
2018-07-08T20:24:52.293Z,6.53
2018-07-08T20:27:20.722Z,6.73
2018-07-08T20:29:49.098Z,7.10
2018-07-08T20:32:17.514Z,6.03
2018-07-08T20:34:45.886Z,7.07
2018-07-08T20:37:14.308Z,6.80
2018-07-08T20:39:42.679Z,6.80
2018-07-08T20:42:11.104Z,6.57
2018-07-08T20:44:39.506Z,6.17
2018-07-08T20:47:07.931Z,7.10
2018-07-08T20:49:36.420Z,7.30
2018-07-08T20:52:04.804Z,7.20
2018-07-08T20:54:33.259Z,7.10
2018-07-08T20:57:01.698Z,7.07
2018-07-08T20:59:30.131Z,7.10
2018-07-08T21:01:58.564Z,7.30
2018-07-08T21:04:27.009Z,7.20
2018-07-08T21:06:55.552Z,7.63
2018-07-08T21:09:23.961Z,7.67
2018-07-08T21:11:52.570Z,7.83
2018-07-08T21:14:21.034Z,7.53
2018-07-08T21:16:49.440Z,7.27
2018-07-08T21:19:17.795Z,7.13
2018-07-08T21:21:46.260Z,7.57
2018-07-08T21:24:14.703Z,7.40
2018-07-08T21:26:43.285Z,8.03
2018-07-08T21:29:11.678Z,8.30
2018-07-08T21:31:40.352Z,7.70
2018-07-08T21:34:08.741Z,7.60
2018-07-08T21:36:37.192Z,8.40
2018-07-08T21:39:07.248Z,7.73
2018-07-08T21:41:35.641Z,7.97
2018-07-08T21:44:04.927Z,8.23
2018-07-08T21:46:33.333Z,7.47
2018-07-08T21:49:01.676Z,8.00
2018-07-08T21:51:30.064Z,7.83
2018-07-08T21:53:58.196Z,7.00
2018-07-08T21:56:26.589Z,7.57
2018-07-08T21:58:54.999Z,7.13
2018-07-08T22:01:23.762Z,8.00
2018-07-08T22:03:52.769Z,8.87
2018-07-08T22:06:21.689Z,7.80
2018-07-08T22:08:50.121Z,7.50
2018-07-08T22:11:18.494Z,8.13
2018-07-08T22:13:46.979Z,8.43
2018-07-08T22:16:15.377Z,8.07
2018-07-08T22:18:43.791Z,8.17
2018-07-08T22:21:12.238Z,7.83
2018-07-08T22:23:40.629Z,7.23
2018-07-08T22:26:09.049Z,7.97
2018-07-08T22:28:37.411Z,8.03
2018-07-08T22:31:05.849Z,8.67
2018-07-08T22:33:34.202Z,7.67
2018-07-08T22:36:02.623Z,7.93
2018-07-08T22:38:31.022Z,8.40
2018-07-08T22:40:59.415Z,8.40
2018-07-08T22:43:27.837Z,8.83
2018-07-08T22:45:56.372Z,8.13
2018-07-08T22:48:24.718Z,8.00
2018-07-08T22:50:53.259Z,8.63
2018-07-08T22:53:21.654Z,7.73
2018-07-08T22:55:50.017Z,8.60
2018-07-08T22:58:18.472Z,8.73
2018-07-08T23:00:58.435Z,8.87
2018-07-08T23:03:50.272Z,9.37
2018-07-08T23:06:19.496Z,9.00
2018-07-08T23:08:48.624Z,8.83
2018-07-08T23:11:17.056Z,9.23
2018-07-08T23:13:45.993Z,9.20
2018-07-08T23:16:14.360Z,9.70
2018-07-08T23:18:42.471Z,8.50
2018-07-08T23:21:10.855Z,8.07
2018-07-08T23:23:39.193Z,9.30
2018-07-08T23:26:07.978Z,8.97
2018-07-08T23:28:37.169Z,9.07
2018-07-08T23:31:06.143Z,8.77
2018-07-08T23:33:34.566Z,9.07
2018-07-08T23:36:03.756Z,9.23
2018-07-08T23:38:32.466Z,9.70
2018-07-08T23:41:01.823Z,9.00
2018-07-08T23:43:30.268Z,9.63
2018-07-08T23:45:58.997Z,9.73
2018-07-08T23:48:27.550Z,9.17
2018-07-08T23:50:56.060Z,9.37
2018-07-08T23:53:24.495Z,9.20
2018-07-08T23:55:53.228Z,8.63
2018-07-08T23:58:21.646Z,9.37
